createdAt,value
2023-05-21T00:04:52.208Z,0.00
2023-05-21T00:09:52.022Z,0.00
2023-05-21T00:14:52.041Z,0.00
2023-05-21T00:19:51.969Z,0.00
2023-05-21T00:24:51.870Z,0.00
2023-05-21T00:29:51.869Z,0.00
2023-05-21T00:34:54.821Z,0.00
2023-05-21T00:39:51.781Z,0.00
2023-05-21T00:44:51.660Z,0.00
2023-05-21T00:49:51.553Z,0.00
2023-05-21T00:54:51.794Z,0.00
2023-05-21T00:59:51.399Z,0.00
2023-05-21T01:04:51.453Z,0.00
2023-05-21T01:09:51.335Z,0.00
2023-05-21T01:14:51.271Z,0.00
2023-05-21T01:19:51.285Z,0.00
2023-05-21T01:24:51.086Z,0.00
2023-05-21T01:29:50.982Z,0.00
2023-05-21T01:34:53.938Z,0.00
2023-05-21T01:39:50.832Z,0.00
2023-05-21T01:44:50.790Z,0.00
2023-05-21T01:49:50.707Z,0.00
2023-05-21T01:54:50.673Z,0.00
2023-05-21T01:59:50.564Z,0.00
2023-05-21T02:04:50.561Z,0.00
2023-05-21T02:09:50.437Z,0.00
2023-05-21T02:14:50.489Z,0.00
2023-05-21T02:19:50.302Z,0.00
2023-05-21T02:24:50.261Z,0.00
2023-05-21T02:29:50.131Z,0.00
2023-05-21T02:34:53.121Z,0.00
2023-05-21T02:39:50.024Z,4.00
2023-05-21T02:44:50.024Z,4.00
2023-05-21T02:49:49.899Z,8.00
2023-05-21T02:54:49.866Z,16.00
2023-05-21T02:59:49.795Z,28.00
2023-05-21T03:04:49.777Z,44.00
2023-05-21T03:09:49.678Z,68.00
2023-05-21T03:14:49.823Z,96.00
2023-05-21T03:19:49.530Z,140.00
2023-05-21T03:24:49.544Z,204.00
2023-05-21T03:29:49.405Z,288.00
2023-05-21T03:34:52.381Z,396.00
2023-05-21T03:39:49.306Z,548.00
2023-05-21T03:44:49.242Z,740.00
2023-05-21T03:49:49.152Z,944.00
2023-05-21T03:54:49.176Z,1140.00
2023-05-21T03:59:49.091Z,1392.00
2023-05-21T04:04:49.154Z,1644.00
2023-05-21T04:09:48.966Z,1924.00
2023-05-21T04:14:48.857Z,2220.00
2023-05-21T04:19:48.784Z,2484.00
2023-05-21T04:24:48.917Z,2688.00
2023-05-21T04:29:50.638Z,2912.00
2023-05-21T04:34:51.585Z,3260.00
2023-05-21T04:39:48.508Z,3420.00
2023-05-21T04:44:48.457Z,3876.00
2023-05-21T04:49:48.399Z,4376.00
2023-05-21T04:54:48.340Z,4988.00
2023-05-21T04:59:48.236Z,5656.00
2023-05-21T05:04:48.181Z,6192.00
2023-05-21T05:09:48.089Z,6696.00
2023-05-21T05:14:48.048Z,7228.00
2023-05-21T05:19:47.925Z,7852.00
2023-05-21T05:24:47.912Z,9668.00
2023-05-21T05:29:47.832Z,12356.00
2023-05-21T05:34:50.805Z,16416.00
2023-05-21T05:39:47.714Z,17824.00
2023-05-21T05:44:47.872Z,21792.00
2023-05-21T05:49:47.561Z,24480.00
2023-05-21T05:54:47.525Z,23104.00
2023-05-21T05:59:47.425Z,25184.00
2023-05-21T06:04:47.400Z,24384.00
2023-05-21T06:09:47.334Z,29216.00
2023-05-21T06:14:47.281Z,30656.00
2023-05-21T06:19:47.174Z,28352.00
2023-05-21T06:24:47.159Z,26208.00
2023-05-21T06:29:47.034Z,27168.00
2023-05-21T06:34:50.017Z,38240.00
2023-05-21T06:39:46.921Z,39840.00
2023-05-21T06:44:46.925Z,40512.00
2023-05-21T06:49:46.774Z,36736.00
2023-05-21T06:54:46.911Z,40896.00
2023-05-21T06:59:46.699Z,32160.00
2023-05-21T07:04:46.753Z,35136.00
2023-05-21T07:09:47.415Z,33056.00
2023-05-21T07:14:46.772Z,26432.00
2023-05-21T07:19:46.495Z,26912.00
2023-05-21T07:24:54.181Z,30272.00
2023-05-21T07:29:50.244Z,24736.00
2023-05-21T07:34:49.240Z,26848.00
2023-05-21T07:39:47.951Z,33984.00
2023-05-21T07:44:46.131Z,35072.00
2023-05-21T07:49:46.042Z,34048.00
2023-05-21T07:54:46.059Z,32512.00
2023-05-21T07:59:45.905Z,26368.00
2023-05-21T08:04:45.995Z,34400.00
2023-05-21T08:09:45.766Z,44128.00
2023-05-21T08:14:45.799Z,40576.00
2023-05-21T08:19:45.757Z,46880.00
2023-05-21T08:24:45.616Z,33856.00
2023-05-21T08:29:45.581Z,24384.00
2023-05-21T08:34:48.499Z,21600.00
2023-05-21T08:39:45.440Z,19776.00
2023-05-21T08:44:45.475Z,18656.00
2023-05-21T08:49:45.309Z,18208.00
2023-05-21T08:54:45.360Z,17088.00
2023-05-21T08:59:45.340Z,16608.00
2023-05-21T09:04:45.177Z,16160.00
2023-05-21T09:09:45.021Z,15808.00
2023-05-21T09:14:45.047Z,15744.00
2023-05-21T09:19:44.870Z,15744.00
2023-05-21T09:24:44.889Z,15840.00
2023-05-21T09:29:44.914Z,16192.00
2023-05-21T09:34:47.787Z,16896.00
2023-05-21T09:39:44.659Z,17056.00
2023-05-21T09:44:44.585Z,17440.00
2023-05-21T09:49:44.519Z,17312.00
2023-05-21T09:54:45.597Z,16576.00
2023-05-21T09:59:44.409Z,16256.00
2023-05-21T10:04:44.460Z,16128.00
2023-05-21T10:09:44.228Z,15968.00
2023-05-21T10:14:44.310Z,15808.00
2023-05-21T10:19:44.143Z,15840.00
2023-05-21T10:24:44.098Z,16064.00
2023-05-21T10:29:44.011Z,16256.00
2023-05-21T10:34:47.009Z,16416.00
2023-05-21T10:39:43.918Z,16576.00
2023-05-21T10:44:44.014Z,16800.00
2023-05-21T10:49:43.748Z,16928.00
2023-05-21T10:54:43.736Z,17120.00
2023-05-21T10:59:43.647Z,17216.00
2023-05-21T11:04:43.596Z,16576.00
2023-05-21T11:09:43.617Z,15616.00
2023-05-21T11:14:43.658Z,14328.00
2023-05-21T11:19:43.528Z,11564.00
2023-05-21T11:24:45.547Z,11164.00
2023-05-21T11:29:43.185Z,12880.00
2023-05-21T11:34:46.246Z,8228.00
2023-05-21T11:39:43.988Z,8500.00
2023-05-21T11:44:43.125Z,15520.00
2023-05-21T11:49:42.985Z,16576.00
2023-05-21T11:54:42.955Z,12424.00
2023-05-21T11:59:42.846Z,10852.00
2023-05-21T12:04:42.787Z,13560.00
2023-05-21T12:09:42.728Z,17568.00
2023-05-21T12:14:42.680Z,17600.00
2023-05-21T12:19:42.553Z,18112.00
2023-05-21T12:24:42.586Z,18112.00
2023-05-21T12:29:42.513Z,18080.00
2023-05-21T12:34:45.622Z,17632.00
2023-05-21T12:39:42.352Z,17024.00
2023-05-21T12:44:42.357Z,16544.00
2023-05-21T12:49:42.222Z,16544.00
2023-05-21T12:54:42.799Z,16416.00
2023-05-21T12:59:42.061Z,16416.00
2023-05-21T13:04:42.501Z,16320.00
2023-05-21T13:09:42.087Z,16192.00
2023-05-21T13:14:42.906Z,16096.00
2023-05-21T13:19:42.144Z,16032.00
2023-05-21T13:24:41.897Z,15840.00
2023-05-21T13:29:41.717Z,15584.00
2023-05-21T13:34:44.721Z,15328.00
2023-05-21T13:39:41.665Z,15052.00
2023-05-21T13:44:41.904Z,14872.00
2023-05-21T13:49:41.641Z,14644.00
2023-05-21T13:54:41.476Z,14316.00
2023-05-21T13:59:41.404Z,14060.00
2023-05-21T14:04:41.816Z,13832.00
2023-05-21T14:09:41.220Z,13692.00
2023-05-21T14:14:41.149Z,13484.00
2023-05-21T14:19:41.099Z,13212.00
2023-05-21T14:31:37.287Z,14216.00
2023-05-21T14:36:38.976Z,13608.00
2023-05-21T14:41:37.205Z,14256.00
2023-05-21T14:46:37.172Z,15072.00
2023-05-21T14:51:37.165Z,14360.00
2023-05-21T14:56:36.928Z,16096.00
2023-05-21T15:01:37.043Z,13332.00
2023-05-21T15:06:36.792Z,11224.00
2023-05-21T15:11:36.759Z,8696.00
2023-05-21T15:16:36.705Z,8824.00
2023-05-21T15:21:39.690Z,9404.00
2023-05-21T15:26:36.612Z,9136.00
2023-05-21T15:31:36.622Z,8356.00
2023-05-21T15:36:36.493Z,7880.00
2023-05-21T15:41:36.428Z,8356.00
2023-05-21T15:46:36.403Z,7676.00
2023-05-21T15:51:36.357Z,7276.00
2023-05-21T15:56:36.232Z,7292.00
2023-05-21T16:01:36.163Z,7096.00
2023-05-21T16:06:36.063Z,6840.00
2023-05-21T16:11:35.965Z,6936.00
2023-05-21T16:16:35.913Z,6912.00
2023-05-21T16:21:38.868Z,6912.00
2023-05-21T16:26:35.786Z,6816.00
2023-05-21T16:31:35.744Z,6712.00
2023-05-21T16:36:35.656Z,6632.00
2023-05-21T16:41:35.613Z,6512.00
2023-05-21T16:46:35.582Z,6372.00
2023-05-21T16:51:35.483Z,6372.00
2023-05-21T16:56:35.387Z,6328.00
2023-05-21T17:01:35.382Z,6220.00
2023-05-21T17:06:38.334Z,5916.00
2023-05-21T17:11:36.139Z,5604.00
2023-05-21T17:16:35.270Z,5344.00
2023-05-21T17:21:38.047Z,5072.00
2023-05-21T17:26:34.977Z,4808.00
2023-05-21T17:31:34.986Z,4580.00
2023-05-21T17:36:35.983Z,4260.00
2023-05-21T17:41:34.798Z,3968.00
2023-05-21T17:46:35.663Z,3704.00
2023-05-21T17:51:34.724Z,3404.00
2023-05-21T17:56:34.563Z,3068.00
2023-05-21T18:01:34.643Z,2740.00
2023-05-21T18:06:34.429Z,2464.00
2023-05-21T18:11:34.441Z,2180.00
2023-05-21T18:16:34.405Z,1896.00
2023-05-21T18:21:37.282Z,1612.00
2023-05-21T18:26:34.465Z,1320.00
2023-05-21T18:31:34.199Z,1044.00
2023-05-21T18:36:34.076Z,812.00
2023-05-21T18:41:34.086Z,612.00
2023-05-21T18:46:33.933Z,456.00
2023-05-21T18:51:34.192Z,328.00
2023-05-21T18:56:33.769Z,228.00
2023-05-21T19:01:33.846Z,152.00
2023-05-21T19:06:33.670Z,100.00
2023-05-21T19:11:33.672Z,68.00
2023-05-21T19:16:33.665Z,40.00
2023-05-21T19:21:36.513Z,24.00
2023-05-21T19:26:33.428Z,12.00
2023-05-21T19:31:33.371Z,8.00
2023-05-21T19:36:48.554Z,4.00
2023-05-21T19:41:34.265Z,0.00
2023-05-21T19:46:33.100Z,0.00
2023-05-21T19:51:33.085Z,0.00
2023-05-21T19:56:32.965Z,0.00
2023-05-21T20:01:33.107Z,0.00
2023-05-21T20:06:32.909Z,0.00
2023-05-21T20:11:32.824Z,0.00
2023-05-21T20:16:32.733Z,0.00
2023-05-21T20:21:35.666Z,0.00
2023-05-21T20:26:32.559Z,0.00
2023-05-21T20:31:32.687Z,0.00
2023-05-21T20:36:32.431Z,0.00
2023-05-21T20:41:32.455Z,0.00
2023-05-21T20:46:32.405Z,0.00
2023-05-21T20:51:32.252Z,0.00
2023-05-21T21:01:32.130Z,0.00
2023-05-21T21:06:32.080Z,0.00
2023-05-21T21:11:31.982Z,0.00
2023-05-21T21:16:31.960Z,0.00
2023-05-21T21:21:34.876Z,0.00
2023-05-21T21:26:31.828Z,0.00
2023-05-21T21:31:31.912Z,0.00
2023-05-21T21:36:31.602Z,0.00
2023-05-21T21:41:31.638Z,0.00
2023-05-21T21:46:31.548Z,0.00
2023-05-21T21:51:31.473Z,0.00
2023-05-21T21:56:31.334Z,0.00
2023-05-21T22:01:31.416Z,0.00
2023-05-21T22:06:31.253Z,0.00
2023-05-21T22:11:31.220Z,0.00
2023-05-21T22:16:31.149Z,0.00
2023-05-21T22:21:34.061Z,0.00
2023-05-21T22:26:31.007Z,0.00
2023-05-21T22:31:31.009Z,0.00
2023-05-21T22:36:30.851Z,0.00
2023-05-21T22:41:30.994Z,0.00
2023-05-21T22:46:30.763Z,0.00
2023-05-21T22:51:30.706Z,0.00
2023-05-21T22:56:30.576Z,0.00
2023-05-21T23:01:30.564Z,0.00
2023-05-21T23:06:30.457Z,0.00
2023-05-21T23:11:30.419Z,0.00
2023-05-21T23:16:30.360Z,0.00
2023-05-21T23:21:33.310Z,0.00
2023-05-21T23:26:30.200Z,0.00
2023-05-21T23:31:30.188Z,0.00
2023-05-21T23:36:30.090Z,0.00
2023-05-21T23:41:30.148Z,0.00
2023-05-21T23:46:30.073Z,0.00
2023-05-21T23:51:30.450Z,0.00
2023-05-21T23:56:30.061Z,0.00
